createdAt,value
2022-10-17T00:01:00.777Z,8.40
2022-10-17T00:03:28.287Z,6.97
2022-10-17T00:05:58.316Z,15.02
2022-10-17T00:08:25.897Z,8.82
2022-10-17T00:10:58.451Z,14.13
2022-10-17T00:13:26.303Z,7.28
2022-10-17T00:15:53.530Z,6.90
2022-10-17T00:18:21.102Z,11.68
2022-10-17T00:20:48.345Z,19.92
2022-10-17T00:23:17.897Z,9.45
2022-10-17T00:25:45.196Z,8.68
2022-10-17T00:28:13.217Z,9.93
2022-10-17T00:30:40.941Z,13.77
2022-10-17T00:33:08.133Z,11.15
2022-10-17T00:35:35.326Z,8.60
2022-10-17T00:38:02.474Z,10.55
2022-10-17T00:40:31.192Z,7.78
2022-10-17T00:42:58.429Z,13.02
2022-10-17T00:45:27.693Z,10.98
2022-10-17T00:47:58.806Z,8.88
2022-10-17T00:50:26.699Z,7.05
2022-10-17T00:52:55.825Z,10.27
2022-10-17T00:55:25.608Z,6.53
2022-10-17T00:57:54.370Z,7.40
2022-10-17T01:00:22.010Z,8.30
2022-10-17T01:02:49.358Z,9.07
2022-10-17T01:05:18.995Z,7.65
2022-10-17T01:07:48.346Z,6.40
2022-10-17T01:10:16.702Z,7.20
2022-10-17T01:13:06.882Z,8.55
2022-10-17T01:15:44.273Z,8.23
2022-10-17T01:18:20.630Z,9.75
2022-10-17T01:21:09.798Z,11.82
2022-10-17T01:24:02.270Z,10.82
2022-10-17T01:26:41.638Z,10.60
2022-10-17T01:29:31.066Z,9.15
2022-10-17T01:32:03.220Z,14.55
2022-10-17T01:34:36.110Z,7.82
2022-10-17T01:37:09.985Z,17.42
2022-10-17T01:39:47.693Z,11.07
2022-10-17T01:42:20.112Z,10.82
2022-10-17T01:44:54.211Z,12.90
2022-10-17T01:47:27.973Z,13.35
2022-10-17T01:49:59.518Z,7.72
2022-10-17T01:52:30.549Z,7.82
2022-10-17T01:55:05.158Z,5.72
2022-10-17T01:57:37.125Z,6.60
2022-10-17T02:00:09.230Z,7.47
2022-10-17T02:02:42.394Z,8.57
2022-10-17T02:05:10.472Z,6.53
2022-10-17T02:07:37.666Z,9.98
2022-10-17T02:10:12.147Z,9.18
2022-10-17T02:12:49.711Z,10.93
2022-10-17T02:15:41.885Z,9.25
2022-10-17T02:18:25.177Z,8.23
2022-10-17T02:20:57.304Z,7.68
2022-10-17T02:23:35.647Z,10.52
2022-10-17T02:26:09.924Z,9.20
2022-10-17T02:28:43.227Z,12.05
2022-10-17T02:31:15.508Z,8.85
2022-10-17T02:33:51.235Z,15.37
2022-10-17T02:36:23.539Z,7.00
2022-10-17T02:38:52.758Z,9.30
2022-10-17T02:41:21.863Z,14.20
2022-10-17T02:43:51.100Z,13.93
2022-10-17T02:46:21.997Z,18.75
2022-10-17T02:48:55.458Z,14.65
2022-10-17T02:51:30.076Z,18.80
2022-10-17T02:54:05.255Z,12.43
2022-10-17T02:56:41.133Z,11.27
2022-10-17T02:59:11.762Z,8.95
2022-10-17T03:01:39.086Z,8.70
2022-10-17T03:04:10.303Z,6.95
2022-10-17T03:06:38.238Z,8.57
2022-10-17T03:09:06.505Z,6.88
2022-10-17T03:11:33.918Z,6.40
2022-10-17T03:14:01.433Z,11.32
2022-10-17T03:16:29.162Z,9.25
2022-10-17T03:18:56.805Z,6.40
2022-10-17T03:21:25.910Z,10.27
2022-10-17T03:23:53.120Z,10.95
2022-10-17T03:26:22.620Z,7.43
2022-10-17T03:28:53.489Z,9.75
2022-10-17T03:31:22.722Z,9.40
2022-10-17T03:33:51.090Z,14.95
2022-10-17T03:36:19.758Z,18.08
2022-10-17T03:38:49.407Z,15.43
2022-10-17T03:41:18.013Z,13.52
2022-10-17T03:43:45.176Z,13.95
2022-10-17T03:46:12.747Z,10.95
2022-10-17T03:48:40.182Z,10.23
2022-10-17T03:51:09.651Z,13.80
2022-10-17T03:53:45.290Z,10.88
2022-10-17T03:56:16.442Z,9.35
2022-10-17T03:58:45.742Z,11.95
2022-10-17T04:01:16.165Z,13.40
2022-10-17T04:03:43.792Z,13.13
2022-10-17T04:06:12.436Z,24.70
2022-10-17T04:08:42.883Z,22.02
2022-10-17T04:11:19.963Z,16.65
2022-10-17T04:13:53.027Z,13.38
2022-10-17T04:16:20.279Z,18.50
2022-10-17T04:21:27.376Z,27.08
2022-10-17T04:23:55.469Z,10.93
2022-10-17T04:26:38.898Z,13.25
2022-10-17T04:29:06.098Z,13.82
2022-10-17T04:31:33.528Z,12.85
2022-10-17T04:34:17.358Z,15.38
2022-10-17T04:36:44.804Z,14.23
2022-10-17T04:41:48.039Z,15.15
2022-10-17T04:44:15.966Z,14.95
2022-10-17T04:46:49.022Z,18.13
2022-10-17T04:49:16.253Z,31.65
2022-10-17T04:51:45.644Z,21.45
2022-10-17T04:54:23.625Z,10.98
2022-10-17T04:56:59.678Z,14.35
2022-10-17T04:59:29.012Z,11.18
2022-10-17T05:02:08.704Z,10.90
2022-10-17T05:04:37.918Z,11.30
2022-10-17T05:07:06.391Z,8.88
2022-10-17T05:09:56.473Z,17.90
2022-10-17T05:12:25.191Z,9.77
2022-10-17T05:14:53.831Z,8.50
2022-10-17T05:17:23.797Z,9.23
2022-10-17T05:19:50.962Z,10.85
2022-10-17T05:22:18.451Z,8.48
2022-10-17T05:24:45.966Z,10.48
2022-10-17T05:27:14.064Z,11.07
2022-10-17T05:29:42.694Z,11.43
2022-10-17T05:32:17.259Z,17.40
2022-10-17T05:34:45.063Z,13.27
2022-10-17T05:37:12.431Z,10.98
2022-10-17T05:39:42.661Z,19.85
2022-10-17T05:42:10.582Z,21.95
2022-10-17T05:44:39.306Z,16.48
2022-10-17T05:47:09.793Z,18.63
2022-10-17T05:49:47.372Z,21.40
2022-10-17T05:52:18.243Z,16.08
2022-10-17T05:54:59.554Z,15.43
2022-10-17T05:57:27.806Z,9.27
2022-10-17T05:59:56.231Z,10.20
2022-10-17T06:02:25.057Z,11.52
2022-10-17T06:04:52.498Z,8.75
2022-10-17T06:07:21.764Z,16.67
2022-10-17T06:09:49.420Z,152.82
2022-10-17T06:12:16.957Z,156.18
2022-10-17T06:14:44.993Z,69.40
2022-10-17T06:17:16.267Z,55.58
2022-10-17T06:19:46.112Z,61.72
2022-10-17T06:22:15.285Z,44.10
2022-10-17T06:24:43.110Z,35.15
2022-10-17T06:27:12.277Z,36.90
2022-10-17T06:29:41.277Z,26.95
2022-10-17T06:32:12.591Z,37.58
2022-10-17T06:34:44.861Z,28.77
2022-10-17T06:37:12.240Z,29.45
2022-10-17T06:39:41.063Z,27.10
2022-10-17T06:42:13.180Z,21.90
2022-10-17T06:45:10.547Z,15.43
2022-10-17T06:47:38.143Z,11.95
2022-10-17T06:50:26.958Z,16.75
2022-10-17T06:53:20.473Z,21.77
2022-10-17T06:56:10.954Z,26.15
2022-10-17T06:58:49.567Z,27.02
2022-10-17T07:01:31.759Z,28.23
2022-10-17T07:04:00.739Z,24.95
2022-10-17T07:06:31.322Z,23.17
2022-10-17T07:09:03.426Z,15.27
2022-10-17T07:11:30.938Z,9.48
2022-10-17T07:13:58.136Z,14.43
2022-10-17T07:16:25.762Z,15.70
2022-10-17T07:19:01.816Z,9.32
2022-10-17T07:21:39.016Z,9.60
2022-10-17T07:24:07.929Z,14.85
2022-10-17T07:26:35.454Z,9.75
2022-10-17T07:29:02.672Z,10.65
2022-10-17T07:31:52.082Z,9.70
2022-10-17T07:34:19.576Z,8.60
2022-10-17T07:36:48.105Z,9.73
2022-10-17T07:39:16.003Z,7.53
2022-10-17T07:41:43.119Z,7.90
2022-10-17T07:44:11.619Z,7.55
2022-10-17T07:46:45.743Z,8.13
2022-10-17T07:49:13.803Z,8.10
2022-10-17T07:51:42.026Z,9.70
2022-10-17T07:54:10.830Z,13.88
2022-10-17T07:56:38.334Z,8.15
2022-10-17T07:59:08.448Z,7.72
2022-10-17T08:01:37.219Z,17.48
2022-10-17T08:04:04.719Z,4.72
2022-10-17T08:06:31.942Z,11.98
2022-10-17T08:08:59.652Z,11.25
2022-10-17T08:11:28.381Z,8.95
2022-10-17T08:13:56.247Z,7.18
2022-10-17T08:16:23.527Z,7.60
2022-10-17T08:18:50.698Z,15.05
2022-10-17T08:21:18.030Z,39.42
2022-10-17T08:23:45.207Z,12.52
2022-10-17T08:26:16.722Z,10.13
2022-10-17T08:28:45.834Z,10.77
2022-10-17T08:31:15.005Z,19.35
2022-10-17T08:33:42.836Z,30.83
2022-10-17T08:36:12.341Z,13.57
2022-10-17T08:38:43.167Z,10.15
2022-10-17T08:41:38.874Z,14.15
2022-10-17T08:44:14.991Z,17.17
2022-10-17T08:46:45.433Z,14.95
2022-10-17T08:49:34.623Z,13.52
2022-10-17T08:52:07.419Z,13.60
2022-10-17T08:54:42.080Z,15.88
2022-10-17T08:57:13.490Z,7.50
2022-10-17T08:59:43.088Z,7.28
2022-10-17T09:02:30.156Z,7.90
2022-10-17T09:05:26.421Z,9.05
2022-10-17T09:08:02.413Z,8.68
2022-10-17T09:10:42.650Z,8.35
2022-10-17T09:13:19.571Z,5.63
2022-10-17T09:16:04.875Z,6.88
2022-10-17T09:18:35.622Z,10.40
2022-10-17T09:21:11.489Z,7.03
2022-10-17T09:23:43.983Z,12.18
2022-10-17T09:26:12.477Z,6.03
2022-10-17T09:28:41.927Z,6.93
2022-10-17T09:31:19.063Z,11.63
2022-10-17T09:33:54.371Z,5.43
2022-10-17T09:36:25.900Z,8.40
2022-10-17T09:38:55.405Z,11.70
2022-10-17T09:41:44.350Z,4.20
2022-10-17T09:44:18.482Z,6.10
2022-10-17T09:47:00.549Z,13.38
2022-10-17T09:49:33.023Z,7.47
2022-10-17T09:52:01.492Z,8.95
2022-10-17T09:54:43.456Z,4.45
2022-10-17T09:57:12.947Z,8.77
2022-10-17T09:59:41.935Z,6.55
2022-10-17T10:02:18.462Z,6.50
2022-10-17T10:05:09.554Z,4.75
2022-10-17T10:07:38.882Z,6.97
2022-10-17T10:10:22.590Z,5.38
2022-10-17T10:13:04.192Z,7.50
2022-10-17T10:15:34.695Z,62.88
2022-10-17T10:18:04.436Z,13.00
2022-10-17T10:20:35.124Z,7.75
2022-10-17T10:23:15.121Z,10.07
2022-10-17T10:26:02.610Z,9.75
2022-10-17T10:28:32.128Z,4.45
2022-10-17T10:31:02.540Z,4.13
2022-10-17T10:33:36.168Z,6.88
2022-10-17T10:36:07.880Z,7.47
2022-10-17T10:38:39.655Z,7.82
2022-10-17T10:41:08.363Z,3.75
2022-10-17T10:43:38.338Z,7.45
2022-10-17T10:46:15.785Z,4.93
2022-10-17T10:48:51.580Z,17.48
2022-10-17T10:51:24.051Z,11.75
2022-10-17T10:53:56.118Z,5.63
2022-10-17T10:56:28.466Z,6.47
2022-10-17T10:59:00.562Z,3.95
2022-10-17T11:01:33.226Z,9.02
2022-10-17T11:04:27.513Z,7.00
2022-10-17T11:07:00.906Z,4.90
2022-10-17T11:09:37.043Z,9.55
2022-10-17T11:12:10.952Z,6.80
2022-10-17T11:14:44.597Z,5.37
2022-10-17T11:17:22.081Z,4.72
2022-10-17T11:20:02.966Z,4.75
2022-10-17T11:22:33.190Z,12.20
2022-10-17T11:25:05.434Z,6.28
2022-10-17T11:27:34.601Z,14.57
2022-10-17T11:30:03.810Z,23.77
2022-10-17T11:32:37.550Z,5.75
2022-10-17T11:35:14.994Z,4.95
2022-10-17T11:37:49.012Z,7.50
2022-10-17T11:40:23.466Z,7.22
2022-10-17T11:42:58.145Z,8.15
2022-10-17T11:45:30.562Z,3.35
2022-10-17T11:48:05.037Z,11.25
2022-10-17T11:53:28.942Z,9.88
2022-10-17T11:55:59.439Z,9.07
2022-10-17T11:58:35.901Z,16.85
2022-10-17T12:01:16.511Z,6.40
2022-10-17T12:03:57.703Z,15.68
2022-10-17T12:06:37.707Z,5.85
2022-10-17T12:09:12.048Z,7.40
2022-10-17T12:11:50.838Z,10.10
2022-10-17T12:14:46.822Z,5.03
2022-10-17T12:17:29.486Z,6.38
2022-10-17T12:20:25.384Z,8.40
2022-10-17T12:25:24.466Z,13.45
2022-10-17T12:28:11.610Z,5.07
2022-10-17T12:30:51.615Z,6.60
2022-10-17T12:33:23.894Z,7.82
2022-10-17T12:36:11.747Z,15.40
2022-10-17T12:38:40.604Z,11.40
2022-10-17T12:41:07.993Z,9.73
2022-10-17T12:43:46.925Z,22.88
2022-10-17T12:46:45.326Z,7.32
2022-10-17T12:49:38.641Z,10.32
2022-10-17T12:52:29.741Z,3.33
2022-10-17T12:55:14.893Z,5.30
2022-10-17T12:57:56.639Z,4.97
2022-10-17T13:00:33.729Z,6.90
2022-10-17T13:03:13.094Z,2.88
2022-10-17T13:05:47.320Z,8.80
2022-10-17T13:10:51.557Z,11.43
2022-10-17T13:13:22.938Z,6.03
2022-10-17T13:15:52.113Z,7.25
2022-10-17T13:18:22.877Z,4.53
2022-10-17T13:21:02.439Z,5.55
2022-10-17T13:23:34.599Z,11.35
2022-10-17T13:26:14.769Z,16.73
2022-10-17T13:28:42.835Z,8.45
2022-10-17T13:31:28.875Z,62.00
2022-10-17T13:33:58.210Z,26.48
2022-10-17T13:36:26.610Z,6.78
2022-10-17T13:38:54.266Z,5.25
2022-10-17T13:41:41.782Z,5.45
2022-10-17T13:44:14.270Z,8.13
2022-10-17T13:46:42.004Z,6.25
2022-10-17T13:49:23.313Z,8.80
2022-10-17T13:51:55.366Z,13.95
2022-10-17T13:54:38.359Z,15.25
2022-10-17T13:57:17.870Z,22.38
2022-10-17T13:59:50.498Z,44.03
2022-10-17T14:02:20.941Z,7.78
2022-10-17T14:05:16.076Z,13.63
2022-10-17T14:08:11.858Z,8.73
2022-10-17T14:10:39.763Z,11.35
2022-10-17T14:13:19.059Z,13.68
2022-10-17T14:15:47.077Z,18.98
2022-10-17T14:18:20.894Z,37.13
2022-10-17T14:23:39.586Z,23.67
2022-10-17T14:26:10.691Z,17.48
2022-10-17T14:28:41.552Z,33.50
2022-10-17T14:31:20.064Z,29.63
2022-10-17T14:33:50.845Z,19.80
2022-10-17T14:36:20.402Z,16.30
2022-10-17T14:38:50.501Z,34.78
2022-10-17T14:41:41.995Z,15.73
2022-10-17T14:44:19.742Z,14.93
2022-10-17T14:46:50.936Z,20.23
2022-10-17T14:49:25.351Z,23.60
2022-10-17T14:52:27.530Z,21.17
2022-10-17T14:54:55.845Z,23.05
2022-10-17T14:57:27.392Z,35.63
2022-10-17T14:59:57.310Z,115.43
2022-10-17T15:02:25.252Z,37.42
2022-10-17T15:04:52.986Z,23.67
2022-10-17T15:07:21.453Z,10.18
2022-10-17T15:09:50.741Z,9.82
2022-10-17T15:12:20.793Z,109.07
2022-10-17T15:14:48.620Z,43.47
2022-10-17T15:17:20.995Z,27.60
2022-10-17T15:19:51.677Z,36.30
2022-10-17T15:22:19.723Z,35.28
2022-10-17T15:24:47.029Z,61.75
2022-10-17T15:27:16.541Z,31.10
2022-10-17T15:29:44.191Z,30.35
2022-10-17T15:32:11.927Z,28.58
2022-10-17T15:34:40.936Z,90.10
2022-10-17T15:37:16.717Z,50.95
2022-10-17T15:39:45.383Z,31.60
2022-10-17T15:42:12.869Z,34.45
2022-10-17T15:44:44.020Z,26.00
2022-10-17T15:47:21.209Z,31.48
2022-10-17T15:49:49.959Z,29.25
2022-10-17T15:52:17.263Z,29.30
2022-10-17T15:54:44.736Z,40.55
2022-10-17T15:57:17.536Z,30.95
2022-10-17T15:59:47.161Z,45.13
2022-10-17T16:02:14.865Z,92.20
2022-10-17T16:04:42.565Z,76.28
2022-10-17T16:07:11.374Z,47.63
2022-10-17T16:09:38.958Z,24.65
2022-10-17T16:12:10.764Z,22.75
2022-10-17T16:14:38.367Z,30.73
2022-10-17T16:17:05.741Z,24.58
2022-10-17T16:19:33.087Z,32.38
2022-10-17T16:22:04.558Z,38.83
2022-10-17T16:24:33.698Z,45.22
2022-10-17T16:27:01.148Z,65.68
2022-10-17T16:29:28.448Z,118.68
2022-10-17T16:31:56.149Z,94.70
2022-10-17T16:34:24.064Z,61.17
2022-10-17T16:36:51.277Z,52.50
2022-10-17T16:39:18.566Z,32.05
2022-10-17T16:41:47.239Z,39.83
2022-10-17T16:44:14.808Z,32.30
2022-10-17T16:46:42.404Z,25.63
2022-10-17T16:49:10.132Z,30.15
2022-10-17T16:51:37.528Z,24.17
2022-10-17T16:54:04.880Z,32.65
2022-10-17T16:56:33.025Z,221.63
2022-10-17T16:59:02.174Z,156.73
2022-10-17T17:01:29.574Z,50.50
2022-10-17T17:03:57.198Z,27.67
2022-10-17T17:06:26.804Z,31.20
2022-10-17T17:08:54.451Z,22.75
2022-10-17T17:11:24.133Z,23.75
2022-10-17T17:13:51.564Z,21.60
2022-10-17T17:16:22.758Z,22.58
2022-10-17T17:18:54.318Z,31.00
2022-10-17T17:21:21.770Z,28.63
2022-10-17T17:23:49.073Z,23.80
2022-10-17T17:26:18.448Z,25.45
2022-10-17T17:28:46.272Z,28.48
2022-10-17T17:31:15.884Z,23.30
2022-10-17T17:33:46.823Z,20.45
2022-10-17T17:36:20.021Z,34.50
2022-10-17T17:38:47.703Z,41.38
2022-10-17T17:41:16.446Z,35.47
2022-10-17T17:43:45.287Z,26.60
2022-10-17T17:46:13.201Z,14.90
2022-10-17T17:48:41.582Z,12.55
2022-10-17T17:51:12.568Z,18.45
2022-10-17T17:53:40.221Z,9.68
2022-10-17T17:56:10.211Z,9.48
2022-10-17T17:58:37.774Z,15.85
2022-10-17T18:01:11.344Z,14.90
2022-10-17T18:03:41.188Z,8.95
2022-10-17T18:06:10.199Z,13.45
2022-10-17T18:08:37.417Z,9.80
2022-10-17T18:11:04.902Z,6.90
2022-10-17T18:13:32.274Z,10.38
2022-10-17T18:16:01.200Z,12.57
2022-10-17T18:18:29.874Z,14.98
2022-10-17T18:21:00.871Z,15.52
2022-10-17T18:23:29.535Z,14.15
2022-10-17T18:25:58.038Z,13.05
2022-10-17T18:28:25.446Z,16.35
2022-10-17T18:30:53.110Z,15.90
2022-10-17T18:33:20.694Z,18.52
2022-10-17T18:35:47.933Z,20.05
2022-10-17T18:38:15.119Z,17.63
2022-10-17T18:40:46.078Z,25.02
2022-10-17T18:43:16.072Z,25.10
2022-10-17T18:45:43.370Z,16.02
2022-10-17T18:48:10.647Z,16.17
2022-10-17T18:50:39.083Z,22.38
2022-10-17T18:53:06.464Z,17.40
2022-10-17T18:55:33.648Z,16.10
2022-10-17T18:58:02.373Z,17.23
2022-10-17T19:00:30.697Z,14.68
2022-10-17T19:02:57.986Z,15.90
2022-10-17T19:05:25.294Z,19.38
2022-10-17T19:07:52.650Z,19.08
2022-10-17T19:10:19.901Z,13.95
2022-10-17T19:12:47.051Z,15.15
2022-10-17T19:15:15.853Z,15.93
2022-10-17T19:17:43.370Z,14.90
2022-10-17T19:20:11.061Z,15.68
2022-10-17T19:22:38.379Z,14.95
2022-10-17T19:25:06.333Z,12.65
2022-10-17T19:27:33.737Z,11.68
2022-10-17T19:30:01.098Z,13.32
2022-10-17T19:32:29.785Z,14.43
2022-10-17T19:34:57.178Z,10.63
2022-10-17T19:37:24.877Z,14.77
2022-10-17T19:39:52.018Z,9.35
2022-10-17T19:42:19.367Z,13.25
2022-10-17T19:44:46.508Z,14.45
2022-10-17T19:47:13.954Z,10.75
2022-10-17T19:49:46.468Z,13.95
2022-10-17T19:54:43.399Z,14.20
2022-10-17T19:57:10.810Z,14.57
2022-10-17T19:59:38.161Z,13.45
2022-10-17T20:02:05.585Z,14.77
2022-10-17T20:04:33.047Z,18.73
2022-10-17T20:07:01.946Z,21.42
2022-10-17T20:09:29.199Z,27.83
2022-10-17T20:11:56.490Z,21.75
2022-10-17T20:14:24.037Z,18.75
2022-10-17T20:16:52.454Z,21.70
2022-10-17T20:19:20.386Z,19.50
2022-10-17T20:21:47.880Z,22.08
2022-10-17T20:24:16.969Z,17.25
2022-10-17T20:26:45.173Z,21.23
2022-10-17T20:29:15.911Z,21.00
2022-10-17T20:31:44.772Z,21.05
2022-10-17T20:34:13.873Z,26.00
2022-10-17T20:36:41.491Z,24.17
2022-10-17T20:39:11.045Z,23.25
2022-10-17T20:41:39.954Z,22.08
2022-10-17T20:44:07.676Z,17.95
2022-10-17T20:46:37.319Z,18.02
2022-10-17T20:49:07.384Z,20.83
2022-10-17T20:51:34.719Z,18.13
2022-10-17T20:54:03.042Z,24.25
2022-10-17T20:56:32.980Z,24.40
2022-10-17T20:59:02.984Z,18.52
2022-10-17T21:01:32.527Z,24.02
2022-10-17T21:04:10.584Z,18.02
2022-10-17T21:06:43.626Z,20.30
2022-10-17T21:09:10.807Z,15.20
2022-10-17T21:11:38.073Z,15.00
2022-10-17T21:14:07.889Z,14.52
2022-10-17T21:16:36.939Z,14.93
2022-10-17T21:19:05.273Z,19.35
2022-10-17T21:21:34.245Z,14.73
2022-10-17T21:24:03.293Z,17.63
2022-10-17T21:26:33.026Z,13.63
2022-10-17T21:29:05.543Z,22.25
2022-10-17T21:31:35.712Z,19.27
2022-10-17T21:34:06.956Z,23.33
2022-10-17T21:36:34.413Z,19.55
2022-10-17T21:39:01.952Z,17.05
2022-10-17T21:41:30.332Z,19.48
2022-10-17T21:44:00.002Z,16.80
2022-10-17T21:46:27.558Z,18.63
2022-10-17T21:48:56.286Z,20.98
2022-10-17T21:51:25.367Z,16.73
2022-10-17T21:53:53.871Z,16.10
2022-10-17T21:56:23.240Z,15.35
2022-10-17T21:58:51.820Z,16.70
2022-10-17T22:01:22.236Z,14.75
2022-10-17T22:03:51.049Z,13.52
2022-10-17T22:09:12.541Z,14.63
2022-10-17T22:11:40.019Z,15.23
2022-10-17T22:14:13.033Z,15.25
2022-10-17T22:16:40.825Z,16.25
2022-10-17T22:19:08.923Z,16.98
2022-10-17T22:21:37.729Z,18.40
2022-10-17T22:24:08.280Z,13.90
2022-10-17T22:26:37.546Z,16.17
2022-10-17T22:29:06.239Z,11.75
2022-10-17T22:31:34.106Z,17.58
2022-10-17T22:34:01.256Z,13.07
2022-10-17T22:36:28.585Z,17.67
2022-10-17T22:38:57.555Z,15.80
2022-10-17T22:41:24.631Z,13.02
2022-10-17T22:43:51.901Z,12.48
2022-10-17T22:46:19.038Z,14.93
2022-10-17T22:48:46.298Z,11.95
2022-10-17T22:51:14.044Z,11.95
2022-10-17T22:53:41.658Z,10.50
2022-10-17T22:56:13.427Z,10.88
2022-10-17T22:58:40.836Z,11.90
2022-10-17T23:01:09.332Z,11.38
2022-10-17T23:03:36.746Z,18.35
2022-10-17T23:06:04.345Z,12.50
2022-10-17T23:08:31.685Z,14.60
2022-10-17T23:10:59.359Z,10.63
2022-10-17T23:13:28.169Z,14.80
2022-10-17T23:15:57.226Z,15.52
2022-10-17T23:18:25.893Z,12.07
2022-10-17T23:20:53.309Z,10.50
2022-10-17T23:23:21.281Z,8.35
2022-10-17T23:25:49.588Z,10.05
2022-10-17T23:28:17.427Z,8.52
2022-10-17T23:30:46.164Z,9.32
2022-10-17T23:33:13.919Z,8.50
2022-10-17T23:35:41.917Z,11.23
2022-10-17T23:38:09.825Z,10.65
2022-10-17T23:40:37.311Z,7.90
2022-10-17T23:43:04.969Z,10.52
2022-10-17T23:45:35.969Z,10.10
2022-10-17T23:48:06.037Z,9.80
2022-10-17T23:50:33.252Z,11.27
2022-10-17T23:53:00.518Z,8.00
2022-10-17T23:55:28.071Z,8.07
2022-10-17T23:57:55.391Z,13.27
